Latest Weather Observations for Barimunya

IDW60801

Issued at 11:02 pm WST Wednesday 4 March 2015 (issued every 30 minutes, with the page automatically refreshed every 10 minutes)

About weather observations | Map of weather stations | Latest weather observations for WA | Other Formats
Station Details ID: 505053 Name: BARIMUNYA Lat: -22.67 Lon: 119.16 Height: 629.17 m
Data from the previous 72 hours. | See also: Recent months for locations in Western Australia
Date/Time
WST
Temp
°C
App
Temp
°C
Dew
Point
Rel
Hum
%
Delta-T
°C
Wind Press
QNH
hPa
Press
MSL
hPa
Rain
since 9 am
mm
Dir
 
Spd
km/h
Gust
km/h
Spd
kts
Gust
kts
04/11:00pm 22.1 21.1 19.6 86 1.6 SSE 24 30 13 16 1017.0 1012.3 5.8
04/10:30pm 22.1 21.8 19.6 86 1.6 S 20 30 11 16 1016.6 1011.8 5.8
04/10:00pm 22.2 21.5 19.6 85 1.7 S 22 28 12 15 1016.7 1011.9 5.8
04/09:30pm 22.2 22.0 19.7 86 1.6 S 20 28 11 15 1016.6 1011.8 5.8
04/09:00pm 21.8 22.1 20.3 91 1.0 SSW 19 24 10 13 1016.4 1011.6 5.8
04/08:30pm 21.5 22.0 20.1 92 0.9 SSW 17 20 9 11 1016.6 1011.8 5.8
04/08:00pm 21.8 22.4 20.3 91 1.0 S 17 20 9 11 1016.4 1011.6 5.0
04/07:30pm 22.7 22.6 19.9 84 1.8 S 20 24 11 13 1015.7 1010.9 4.0
04/07:00pm 23.2 23.6 19.8 81 2.2 SSE 17 20 9 11 1015.7 1010.9 4.0
04/06:30pm 23.2 23.3 20.0 82 2.1 S 19 24 10 13 1014.8 1010.0 4.0
04/06:00pm 23.3 23.5 20.1 82 2.1 S 19 24 10 13 1014.6 1009.8 4.0
04/05:30pm 23.7 22.8 19.8 79 2.6 S 24 32 13 17 1014.1 1009.3 4.0
04/05:00pm 23.6 23.2 20.1 81 2.3 S 22 30 12 16 1014.1 1009.3 4.0
04/04:30pm 23.5 22.0 20.2 82 2.2 S 28 33 15 18 1014.3 1009.5 4.0
04/04:00pm 24.1 23.5 20.6 81 2.3 SSE 24 30 13 16 1014.4 1009.6 4.0
04/03:30pm 23.9 23.7 20.6 82 2.2 S 22 28 12 15 1014.5 1009.7 4.0
04/03:00pm 23.7 24.0 20.4 82 2.2 SSW 19 24 10 13 1014.2 1009.4 3.4
04/02:30pm 23.8 24.9 20.5 82 2.2 S 15 20 8 11 1014.4 1009.6 3.4
04/02:00pm 24.0 23.8 20.5 81 2.3 SSE 22 28 12 15 1014.7 1009.9 3.2
04/01:30pm 23.0 22.6 20.1 84 1.9 SSE 22 28 12 15 1015.0 1010.2 3.2
04/01:00pm 22.3 22.5 20.6 90 1.1 SSE 20 26 11 14 1015.4 1010.7 3.2
04/12:37pm 21.8 22.1 20.4 92 0.9 SSE 19 22 10 12 1015.8 1011.0 3.2
04/12:30pm 21.7 22.3 20.3 92 0.9 SSE 17 20 9 11 1016.2 1011.4 3.2
04/12:19pm 21.6 22.3 20.4 93 0.8 ESE 17 26 9 14 1016.8 1012.1 2.6
04/12:14pm 21.7 22.2 20.0 90 1.1 ESE 17 26 9 14 1017.2 1012.5 1.6
04/12:00pm 21.9 22.0 20.0 89 1.2 ESE 19 24 10 13 1017.2 1012.5 1.0
04/11:30am 22.1 21.8 19.6 86 1.6 SSE 20 28 11 15 1016.7 1011.9 0.8
04/11:00am 21.9 21.9 20.2 90 1.1 SSE 20 24 11 13 1016.5 1011.7 0.8
04/10:30am 21.9 21.5 20.2 90 1.1 SSE 22 26 12 14 1016.6 1011.8 0.6
04/10:00am 21.6 21.6 20.1 91 1.0 S 20 26 11 14 1016.6 1011.8 0.6
04/09:34am 21.2 21.8 20.2 94 0.7 S 17 24 9 13 1017.0 1012.3 0.6
04/09:31am 21.1 21.2 19.9 93 0.8 S 19 24 10 13 1017.0 1012.3 0.4
04/09:30am 21.2 21.4 20.2 94 0.7 S 19 26 10 14 1017.0 1012.3 0.4
04/09:00am 21.1 20.2 19.9 93 0.8 SSE 24 30 13 16 1017.2 1012.5 23.6
04/08:30am 21.4 21.7 20.4 94 0.7 SE 19 24 10 13 1017.2 1012.5 23.2
04/08:23am 21.5 21.7 20.5 94 0.7 SE 20 28 11 15 1017.2 1012.5 23.2
04/08:00am 21.2 21.1 20.0 93 0.8 SSE 20 24 11 13 1016.8 1012.1 23.2
04/07:30am 21.6 21.9 20.4 93 0.8 SSE 19 24 10 13 1016.5 1011.7 22.8
04/07:17am 21.6 22.9 20.2 92 0.9 SSE 13 19 7 10 1016.5 1011.7 22.6
04/07:00am 21.7 23.1 20.3 92 0.9 SSE 13 17 7 9 1016.4 1011.6 22.6
04/06:30am 21.6 23.3 20.2 92 0.9 SSE 11 15 6 8 1015.7 1010.9 22.6
04/06:00am 21.3 23.0 20.1 93 0.8 S 11 15 6 8 1015.0 1010.2 22.6
04/05:34am 21.5 23.6 20.1 92 0.9 ESE 9 13 5 7 1015.1 1010.3 22.6
04/05:30am 21.5 23.6 20.1 92 0.9 ESE 9 13 5 7 1015.1 1010.3 22.6
04/05:00am 21.7 23.5 20.3 92 0.9 ESE 11 15 6 8 1015.3 1010.6 22.4
04/04:52am 21.8 23.5 20.1 90 1.1 E 11 19 6 10 1015.3 1010.6 22.4
04/04:30am 21.8 23.1 20.1 90 1.1 E 13 19 7 10 1015.0 1010.2 22.4
04/04:00am 21.9 22.0 20.0 89 1.3 E 19 28 10 15 1014.5 1009.7 22.4
04/03:54am 21.8 21.8 20.1 90 1.1 E 20 32 11 17 1014.5 1009.7 22.4
04/03:52am 21.8 21.4 20.1 90 1.1 E 22 32 12 17 1014.5 1009.7 22.4
04/03:42am 21.8 21.0 20.1 90 1.1 E 24 30 13 16 1014.5 1009.7 22.4
04/03:40am 21.8 21.1 20.3 91 1.0 E 24 30 13 16 1014.4 1009.6 22.4
04/03:30am 21.8 21.5 20.3 91 1.0 E 22 32 12 17 1014.3 1009.5 22.4
04/03:00am 21.9 21.5 20.9 94 0.7 ESE 24 37 13 20 1013.8 1009.1 22.2
04/02:30am 22.0 21.5 20.8 93 0.8 ESE 24 35 13 19 1013.8 1009.1 20.8
04/02:14am 22.3 21.5 20.9 92 0.9 ESE 26 35 14 19 1014.0 1009.2 20.2
04/02:00am 22.4 20.4 20.7 90 1.1 E 32 44 17 24 1013.8 1009.1 20.2
04/01:30am 23.6 24.3 21.5 88 1.4 SE 20 43 11 23 1013.5 1008.7 19.6
04/01:00am 22.8 26.6 21.6 93 0.8 SSW 4 7 2 4 1013.6 1008.8 18.6
04/12:30am 22.6 25.7 21.4 93 0.8 S 7 11 4 6 1013.4 1008.6 17.8
04/12:00am 23.0 26.3 21.8 93 0.8 SSW 7 9 4 5 1013.4 1008.6 17.2
 
Date/Time
WST
Temp
°C
App
Temp
°C
Dew
Point
Rel
Hum
%
Delta-T
°C
Wind Press
QNH
hPa
Press
MSL
hPa
Rain
since 9 am
mm
Dir
 
Spd
km/h
Gust
km/h
Spd
kts
Gust
kts
03/11:30pm 22.4 25.0 21.2 93 0.8 SSW 9 11 5 6 1013.6 1008.8 17.2
03/11:13pm 22.4 24.5 20.9 91 1.0 W 11 15 6 8 1014.2 1009.4 16.6
03/11:00pm 22.8 25.7 21.1 90 1.1 W 7 13 4 7 1014.3 1009.5 16.2
03/10:55pm 22.8 25.2 20.9 89 1.3 WNW 9 15 5 8 1014.4 1009.6 15.6
03/10:30pm 24.9 28.4 22.8 88 1.4 SSW 9 15 5 8 1013.7 1008.9 13.8
03/10:00pm 24.6 27.4 22.3 87 1.6 S 11 13 6 7 1013.3 1008.5 13.6
03/09:30pm 25.0 27.4 22.3 85 1.9 SE 13 19 7 10 1013.4 1008.6 13.4
03/09:00pm 25.2 27.3 22.5 85 1.9 SSE 15 19 8 10 1013.6 1008.8 13.4
03/08:30pm 25.0 30.1 22.7 87 1.6 CALM 0 0 0 0 1013.5 1008.7 12.8
03/08:25pm 24.9 29.6 22.0 84 2.0 CALM 0 6 0 3 1013.4 1008.6 12.8
03/08:07pm 24.6 26.7 22.5 88 1.4 NNE 15 20 8 11 1013.5 1008.7 12.0
03/08:00pm 25.9 28.4 22.4 81 2.4 ESE 13 19 7 10 1013.4 1008.6 9.6
03/07:30pm 26.4 29.8 22.0 77 3.0 ESE 7 11 4 6 1012.9 1008.1 9.2
03/07:00pm 26.8 29.1 22.0 75 3.3 E 13 19 7 10 1012.3 1007.4 9.2
03/06:30pm 27.4 29.2 21.9 72 3.8 E 15 20 8 11 1011.5 1006.7 9.2
03/06:00pm 26.8 31.1 22.0 75 3.3 ENE 2 9 1 5 1010.9 1006.0 9.2
03/05:30pm 25.9 28.6 22.2 80 2.5 NE 11 19 6 10 1010.4 1005.6 9.2
03/05:00pm 25.9 26.9 20.2 71 3.8 ENE 15 24 8 13 1011.0 1006.2 9.0
03/04:30pm 24.0 27.4 23.3 96 0.5 NE 11 15 6 8 1011.0 1006.2 9.0
03/04:03pm 22.2 22.5 20.3 89 1.3 N 19 24 10 13 1011.5 1006.7 6.6
03/04:00pm 22.2 22.1 19.9 87 1.5 NNW 20 26 11 14 1011.6 1006.8 6.2
03/03:41pm 22.2 20.2 20.7 91 1.0 NNW 32 44 17 24 1011.1 1006.3 3.2
03/03:39pm 22.3 19.9 20.4 89 1.3 NNW 33 44 18 24 1011.3 1006.5 2.4
03/03:30pm 23.5 23.0 22.1 92 1.0 NNW 28 46 15 25 1011.4 1006.6 1.4
03/03:25pm 23.6 22.0 21.9 90 1.2 N 33 59 18 32 1011.1 1006.3 1.4
03/03:16pm 25.1 25.5 21.8 82 2.2 NE 22 59 12 32 1011.3 1006.5 0.0
03/03:15pm 27.2 27.9 21.2 69 4.1 NE 19 43 10 23 1011.2 1006.4 0.0
03/03:00pm 30.3 31.1 19.9 53 7.0 ESE 15 22 8 12 1010.6 1005.7 0.0
03/02:30pm 30.9 31.2 19.6 51 7.6 E 17 24 9 13 1010.7 1005.8 0.0
03/02:00pm 30.7 30.8 20.0 52 7.2 E 19 28 10 15 1011.1 1006.3 0.0
03/01:30pm 31.7 30.9 20.0 50 7.9 ESE 24 32 13 17 1011.5 1006.7 0.0
03/01:00pm 31.7 31.6 20.0 50 7.9 E 20 32 11 17 1012.1 1007.3 0.0
03/12:30pm 30.6 30.8 20.2 53 7.0 ENE 19 28 10 15 1012.8 1008.0 0.0
03/12:00pm 30.4 31.0 20.3 54 6.8 NE 17 28 9 15 1013.1 1008.3 0.0
03/11:30am 30.4 30.8 20.6 55 6.7 E 19 28 10 15 1013.2 1008.4 0.0
03/11:00am 28.6 28.9 20.3 60 5.6 ENE 19 28 10 15 1013.5 1008.7 0.0
03/10:30am 27.8 28.2 20.9 66 4.7 ENE 20 30 11 16 1013.8 1009.1 0.0
03/10:00am 27.1 27.6 20.9 69 4.2 ENE 19 26 10 14 1014.1 1009.3 0.0
03/09:30am 26.8 27.0 20.6 69 4.2 NE 20 26 11 14 1013.8 1009.1 0.0
03/09:00am 26.6 27.0 20.7 70 4.0 NE 19 26 10 14 1013.8 1009.1 0.0
03/08:30am 25.5 25.7 20.1 72 3.6 NE 19 26 10 14 1013.6 1008.8 0.0
03/08:00am 25.4 25.2 19.8 71 3.7 NE 20 32 11 17 1013.4 1008.6 0.0
03/07:30am 24.4 24.3 19.9 76 3.0 ENE 20 30 11 16 1013.3 1008.5 0.0
03/07:00am 23.6 24.4 19.9 80 2.4 ENE 15 22 8 12 1013.1 1008.3 0.0
03/06:30am 22.9 23.5 20.2 85 1.8 E 17 26 9 14 1012.9 1008.1 0.0
03/06:00am 22.9 23.7 20.6 87 1.5 E 17 22 9 12 1012.7 1007.9 0.0
03/05:30am 22.8 23.6 20.7 88 1.4 E 17 22 9 12 1012.1 1007.3 0.0
03/05:00am 22.8 23.6 20.7 88 1.4 E 17 20 9 11 1011.6 1006.8 0.0
03/04:34am 22.8 24.4 20.7 88 1.4 E 13 19 7 10 1011.5 1006.7 0.0
03/04:30am 22.9 23.8 20.8 88 1.4 E 17 22 9 12 1011.6 1006.8 0.0
03/04:09am 22.9 24.3 21.0 89 1.3 E 15 20 8 11 1011.5 1006.7 0.0
03/04:00am 23.0 23.5 20.9 88 1.4 E 19 26 10 14 1011.5 1006.7 0.0
03/03:30am 23.0 23.4 20.9 88 1.4 E 20 28 11 15 1011.4 1006.6 0.0
03/03:28am 23.0 23.4 20.9 88 1.4 E 20 28 11 15 1011.4 1006.6 0.0
03/03:01am 23.3 23.2 20.8 86 1.7 E 22 32 12 17 1011.4 1006.6 0.0
03/03:00am 23.3 23.2 20.8 86 1.7 E 22 32 12 17 1011.4 1006.6 0.0
03/02:30am 23.8 23.6 20.5 82 2.2 ESE 22 28 12 15 1011.6 1006.8 0.0
03/02:00am 24.1 23.8 20.4 80 2.5 ESE 22 28 12 15 1011.5 1006.7 0.0
03/01:30am 24.2 24.7 20.9 82 2.2 SE 19 22 10 12 1011.5 1006.7 0.0
03/01:00am 24.3 24.8 21.2 83 2.1 ESE 20 24 11 13 1011.5 1006.7 0.0
03/12:30am 24.4 25.9 21.3 83 2.1 SE 15 20 8 11 1011.9 1007.1 0.0
03/12:00am 24.4 24.5 21.1 82 2.2 SE 22 28 12 15 1012.1 1007.3 0.0
 
Date/Time
WST
Temp
°C
App
Temp
°C
Dew
Point
Rel
Hum
%
Delta-T
°C
Wind Press
QNH
hPa
Press
MSL
hPa
Rain
since 9 am
mm
Dir
 
Spd
km/h
Gust
km/h
Spd
kts
Gust
kts
02/11:30pm 24.7 25.3 21.4 82 2.2 SE 20 28 11 15 1012.0 1007.2 0.0
02/11:14pm 24.8 25.4 21.3 81 2.4 SE 20 28 11 15 1011.9 1007.1 0.0
02/11:00pm 24.8 24.2 21.3 81 2.4 SE 26 37 14 20 1011.9 1007.1 0.0
02/10:46pm 25.2 23.9 21.3 79 2.6 ESE 30 39 16 21 1011.7 1006.9 0.0
02/10:30pm 25.4 23.9 20.9 76 3.0 ESE 30 43 16 23 1011.7 1006.9 0.0
02/10:00pm 26.1 26.0 20.7 72 3.6 ESE 22 32 12 17 1011.9 1007.1 0.0
02/09:30pm 26.2 26.9 20.5 71 3.8 SE 17 20 9 11 1011.4 1006.6 0.0
02/09:00pm 26.4 28.4 20.7 71 3.8 SSE 11 17 6 9 1011.2 1006.4 0.0
02/08:30pm 26.4 27.3 20.9 72 3.7 SE 17 24 9 13 1010.4 1005.6 0.0
02/08:00pm 26.6 26.8 20.2 68 4.3 ESE 19 22 10 12 1010.1 1005.3 0.0
02/07:30pm 27.5 27.5 20.1 64 5.0 SE 20 28 11 15 1009.4 1004.5 0.0
02/07:00pm 28.8 28.6 20.5 61 5.6 SE 22 30 12 16 1008.7 1003.9 0.0
02/06:30pm 29.7 30.2 20.0 56 6.5 SSE 17 26 9 14 1008.3 1003.5 0.0
02/06:00pm 32.8 35.0 17.4 39 10.1 NE 2 11 1 6 1007.6 1002.7 0.0
02/05:30pm 33.0 32.5 16.8 38 10.5 NE 15 22 8 12 1007.3 1002.4 0.0
02/05:00pm 33.4 34.1 17.1 37 10.7 NW 9 17 5 9 1007.0 1002.2 0.0
02/04:30pm 33.8 34.1 17.9 38 10.5 NW 13 24 7 13 1006.9 1002.1 0.0
02/04:00pm 33.6 33.8 17.7 38 10.5 NNW 13 20 7 11 1006.8 1002.0 0.0
02/03:30pm 33.3 33.8 18.3 41 10.0 NNW 13 20 7 11 1006.8 1002.0 0.0
02/03:00pm 33.0 33.5 18.4 42 9.7 NNE 13 20 7 11 1007.2 1002.3 0.0
02/02:30pm 31.8 31.9 19.1 47 8.5 NE 17 26 9 14 1007.8 1002.9 0.0
02/02:00pm 32.4 32.6 18.6 44 9.2 NNE 15 22 8 12 1008.3 1003.5 0.0
02/01:30pm 32.9 34.0 19.7 45 8.9 N 13 20 7 11 1008.6 1003.8 0.0
02/01:00pm 31.4 32.7 19.4 49 8.1 NW 11 19 6 10 1008.9 1004.0 0.0
02/12:30pm 32.2 34.4 19.5 47 8.5 NNW 7 19 4 10 1009.3 1004.4 0.0
02/12:00pm 30.5 32.1 19.2 51 7.5 NNE 9 20 5 11 1009.8 1005.0 0.0
02/11:30am 30.3 32.4 19.3 51 7.3 NNE 7 17 4 9 1010.4 1005.6 0.0
02/11:00am 30.1 33.0 19.8 54 6.9 NNE 4 9 2 5 1010.9 1006.0 0.0
02/10:30am 30.1 32.3 19.2 52 7.3 NNE 6 15 3 8 1011.2 1006.4 0.0
02/10:00am 29.5 32.1 20.1 57 6.3 WSW 6 11 3 6 1011.6 1006.8 0.0
02/09:30am 28.5 31.6 20.2 60 5.6 WSW 4 11 2 6 1011.8 1007.0 0.0
02/09:00am 27.9 31.3 21.0 66 4.7 SSW 4 11 2 6 1011.6 1006.8 0.0
02/08:30am 26.7 29.3 20.5 69 4.2 SW 7 13 4 7 1011.2 1006.4 0.0
02/08:00am 26.5 28.1 20.8 71 3.8 WSW 13 17 7 9 1010.9 1006.0 0.0
02/07:30am 25.6 27.8 21.1 76 3.0 WSW 11 15 6 8 1010.7 1005.8 0.0
02/07:00am 25.0 27.4 20.9 78 2.8 W 9 15 5 8 1010.6 1005.7 0.0
02/06:30am 24.2 28.2 21.3 84 2.0 NNE 2 7 1 4 1010.4 1005.6 0.0
02/06:00am 24.0 27.0 20.9 83 2.1 NNE 6 7 3 4 1010.3 1005.5 0.0
02/05:30am 24.1 27.8 20.8 82 2.2 NNE 2 7 1 4 1010.0 1005.2 0.0
02/05:00am 24.0 26.7 20.3 80 2.5 NNE 6 9 3 5 1009.5 1004.7 0.0
02/04:30am 24.1 26.8 20.6 81 2.3 N 7 9 4 5 1009.4 1004.5 0.0
02/04:00am 24.4 27.0 20.5 79 2.6 NNW 7 11 4 6 1009.5 1004.7 0.0
02/03:30am 24.9 28.0 20.2 75 3.1 NNW 4 7 2 4 1009.4 1004.5 0.0
02/03:00am 25.1 27.2 20.1 74 3.3 NNW 9 15 5 8 1009.3 1004.4 0.0
02/02:30am 25.3 27.0 20.1 73 3.5 NNW 11 13 6 7 1009.5 1004.7 0.0
02/02:00am 25.3 27.5 20.3 74 3.3 NNW 9 13 5 7 1009.6 1004.8 0.0
02/01:30am 25.0 27.7 20.7 77 2.9 N 7 11 4 6 1009.7 1004.9 0.0
02/01:00am 25.0 27.5 21.1 79 2.6 N 9 11 5 6 1010.0 1005.2 0.0
02/12:30am 25.2 27.0 21.1 78 2.8 NNE 13 17 7 9 1010.3 1005.5 0.0
02/12:00am 25.5 27.3 21.2 77 2.9 NNE 13 17 7 9 1010.4 1005.6 0.0
 
Date/Time
WST
Temp
°C
App
Temp
°C
Dew
Point
Rel
Hum
%
Delta-T
°C
Wind Press
QNH
hPa
Press
MSL
hPa
Rain
since 9 am
mm
Dir
 
Spd
km/h
Gust
km/h
Spd
kts
Gust
kts
01/11:30pm 25.9 28.3 21.6 77 2.9 NNE 11 15 6 8 1010.2 1005.4 0.0

Other Formats:

Comma delimited format used in spreadsheet applications
http://www.bom.gov.au/fwo/IDW60801/IDW60801.99313.axf

JavaScript Object Notation format (JSON) in row-major order
http://www.bom.gov.au/fwo/IDW60801/IDW60801.99313.json